• Join FlightAware (Why Join?)
  • Login
  • US Flag 
08:34AM EST


 

Airport Tracker/Info


-or-


 

Live Flight TrackerFlight Track Log ✈ EJA122 ✈ 19-Jul-2013 ✈ KCRQ - KAPC

Flight Track Log - Related Links

Times and Time Zones

All times are in EDT time to prevent confusion due to time zone crossing. See the EJA122 flight status page for this flight to view local times or setup timezone preferences in your user account.

Time Position Orientation Groundspeed Altitude Reporting Facility
EDT Latitude Longitude Course Direction KTS MPH feet Rate Location/Type
02:21AM 33.1167 -117.3000 268° West 150 173 1,400  Level Southern California TRACON
02:23AM 33.1131 -117.4400 268° West 202 232 7,100 2,580 Climbing Los Angeles Center
02:24AM 33.0992 -117.5314 260° West 247 284 9,500 1,980 Climbing Los Angeles Center
02:25AM 33.1200 -117.6219 285° West 284 327 11,200 1,380 Climbing Los Angeles Center
02:26AM 33.1686 -117.7203 301° West 329 379 12,400 1,500 Climbing Los Angeles Center
02:27AM 33.2586 -117.7750 333° Northwest 355 409 14,300 1,860 Climbing Los Angeles Center
02:28AM 33.3469 -117.8339 331° Northwest 359 413 16,300 1,920 Climbing Los Angeles Center
02:29AM 33.4339 -117.8944 330° Northwest 362 417 18,300 1,620 Climbing Los Angeles Center
02:30AM 33.5200 -117.9539 330° Northwest 360 414 19,700 1,080 Climbing Los Angeles Center
02:31AM 33.6083 -118.0150 330° Northwest 365 420 20,800 1,200 Climbing Los Angeles Center
02:32AM 33.7356 -118.1031 330° Northwest 379 436 22,400 1,260 Climbing Los Angeles Center
02:33AM 33.8267 -118.1658 330° Northwest 383 441 23,400 960 Climbing Los Angeles Center
02:34AM 33.9178 -118.2311 329° Northwest 388 447 24,400 900 Climbing Los Angeles Center
02:35AM 34.0100 -118.2961 330° Northwest 389 448 25,300 780 Climbing Los Angeles Center
02:36AM 34.1025 -118.3619 329° Northwest 389 448 26,000 720 Climbing Los Angeles Center
02:37AM 34.1964 -118.4286 330° Northwest 392 451 26,800 660 Climbing Los Angeles Center
02:38AM 34.2919 -118.4969 329° Northwest 398 458 27,400 660 Climbing Los Angeles Center
02:39AM 34.3875 -118.5642 330° Northwest 399 459 28,200 780 Climbing Los Angeles Center
02:40AM 34.5039 -118.6469 330° Northwest 406 467 29,000 720 Climbing Los Angeles Center
02:41AM 34.6025 -118.7178 329° Northwest 410 472 29,700 660 Climbing Los Angeles Center
02:42AM 34.7025 -118.7897 329° Northwest 417 480 30,400 600 Climbing Los Angeles Center
02:43AM 34.8042 -118.8606 330° Northwest 422 486 31,000 540 Climbing Los Angeles Center
02:44AM 34.8964 -118.9522 321° Northwest 427 491 31,600 540 Climbing Los Angeles Center
02:45AM 34.9803 -119.0325 322° Northwest 428 493 32,100 540 Climbing Los Angeles Center
02:46AM 35.0750 -119.1239 322° Northwest 433 498 32,700 540 Climbing Los Angeles Center
02:47AM 35.1492 -119.1975 321° Northwest 432 497 33,200 600 Climbing Los Angeles Center
02:48AM 35.2803 -119.3242 322° Northwest 428 493 34,000 360 Climbing Los Angeles Center
02:49AM 35.3756 -119.4194 321° Northwest 436 502 34,000  Level Los Angeles Center
02:50AM 35.4747 -119.5175 321° Northwest 454 522 34,000  Level Los Angeles Center
02:51AM 35.5744 -119.6167 321° Northwest 460 529 34,000  Level Los Angeles Center
02:52AM 35.6711 -119.7122 321° Northwest 466 536 34,000  Level Oakland Center
02:53AM 35.7931 -119.8350 321° Northwest 473 544 34,000  Level Oakland Center
02:54AM 35.8853 -119.9433 316° Northwest 470 541 34,000  Level Oakland Center
02:55AM 35.9775 -120.0528 316° Northwest 465 535 34,000  Level Oakland Center
02:56AM 36.0708 -120.1658 316° Northwest 471 542 34,000  Level Oakland Center
02:57AM 36.1631 -120.2747 316° Northwest 466 536 34,000  Level Oakland Center
02:58AM 36.2556 -120.3864 316° Northwest 466 536 34,000  Level Oakland Center
02:59AM 36.3492 -120.4986 316° Northwest 471 542 34,000  Level Oakland Center
03:00AM 36.4419 -120.6111 316° Northwest 469 540 34,000  Level Oakland Center
03:01AM 36.5344 -120.7231 316° Northwest 467 537 34,000  Level Oakland Center
03:02AM 36.6261 -120.8364 315° West 468 539 34,000  Level Oakland Center
03:04AM 36.7192 -120.9483 316° Northwest 468 539 34,000 -240 Level Oakland Center
03:05AM 36.8108 -121.0617 315° West 466 536 33,600 -1,200 Descending Oakland Center
03:06AM 36.9092 -121.1886 314° West 463 533 31,600 -1,800 Descending Oakland Center
03:07AM 36.9992 -121.3028 315° West 462 532 30,000 -1,740 Descending Oakland Center
03:08AM 37.0892 -121.4144 315° West 465 535 28,200 -1,920 Descending Oakland Center
03:09AM 37.1789 -121.5275 315° West 460 529 26,200 -2,040 Descending Oakland Center
03:10AM 37.2689 -121.6406 315° West 458 527 24,100 -2,220 Descending Oakland Center
03:11AM 37.3564 -121.7517 315° West 447 514 21,800 -2,520 Descending Oakland Center
03:11AM 37.4333 -121.8500 315° West 425 489 19,500 -2,880 Descending Northern Cal TRACON
03:12AM 37.5167 -121.9500 316° Northwest 418 481 16,600 -1,980 Descending Northern Cal TRACON
03:13AM 37.6000 -122.0500 316° Northwest 401 461 15,600 -1,800 Descending Northern Cal TRACON
03:14AM 37.6667 -122.1500 310° West 365 420 13,000 -2,880 Descending Northern Cal TRACON
03:17AM 37.8125 -122.2864 324° Northwest 296 341 6,500 -2,820 Descending Oakland Center
03:18AM 37.8772 -122.3350 329° Northwest 281 323 4,100 -1,260 Descending Oakland Center
03:19AM 37.9392 -122.3808 330° Northwest 266 306 4,000 -780 Descending Oakland Center
03:20AM 38.0036 -122.3778 North 252 290 2,600 -840 Descending Oakland Center
03:21AM 38.0561 -122.3558 18° North 213 245 2,400 -420 Descending Oakland Center
03:22AM 38.0981 -122.3381 18° North 172 198 1,800 -360 Descending Oakland Center
03:23AM 38.1342 -122.3200 21° North 146 168 1,700 -600 Descending Oakland Center
03:24AM 38.1714 -122.3019 21° North 144 166 600 9,060 Descending Oakland Center
03:25AM 38.2122 -122.2836 19° North 150 173 20,000 19,380 Climbing Oakland Center
03:27AM 38.2132 -122.2807 31° Northeast  Level Estimated
03:34AM 38.2132 -122.2807 31° Northeast  Level Estimated